createdAt,value
2017-04-01T00:00:39.730Z,0
2017-04-01T00:01:38.742Z,0
2017-04-01T00:02:38.732Z,0
2017-04-01T00:03:38.718Z,0
2017-04-01T00:04:38.700Z,0
2017-04-01T00:05:38.383Z,0
2017-04-01T00:06:38.675Z,0
2017-04-01T00:07:38.661Z,0
2017-04-01T00:08:38.728Z,0
2017-04-01T00:09:38.642Z,0
2017-04-01T00:10:38.627Z,0
2017-04-01T00:11:38.996Z,0
2017-04-01T00:12:39.193Z,0
2017-04-01T00:13:38.485Z,0
2017-04-01T00:14:39.146Z,0
2017-04-01T00:15:38.462Z,0
2017-04-01T00:16:37.937Z,0
2017-04-01T00:17:38.728Z,0
2017-04-01T00:18:38.529Z,0
2017-04-01T00:19:38.534Z,0
2017-04-01T00:20:38.566Z,0
2017-04-01T00:21:38.193Z,0
2017-04-01T00:22:38.481Z,0
2017-04-01T00:23:38.753Z,0
2017-04-01T00:24:38.473Z,0
2017-04-01T00:25:38.666Z,0
2017-04-01T00:26:38.579Z,0
2017-04-01T00:27:38.871Z,0
2017-04-01T00:28:38.701Z,0
2017-04-01T00:29:38.765Z,0
2017-04-01T00:30:39.113Z,0
2017-04-01T00:31:38.386Z,0
2017-04-01T00:32:38.366Z,0
2017-04-01T00:33:37.726Z,0
2017-04-01T00:34:38.033Z,0
2017-04-01T00:35:38.026Z,0
2017-04-01T00:36:38.321Z,0
2017-04-01T00:37:37.986Z,0
2017-04-01T00:38:38.303Z,0
2017-04-01T00:39:37.984Z,0
2017-04-01T00:40:37.965Z,0
2017-04-01T00:41:38.879Z,0
2017-04-01T00:42:37.940Z,0
2017-04-01T00:43:38.245Z,0
2017-04-01T00:44:38.821Z,0
2017-04-01T00:45:37.897Z,0
2017-04-01T00:46:38.197Z,0
2017-04-01T00:47:37.876Z,0
2017-04-01T00:48:37.552Z,0
2017-04-01T00:49:37.844Z,0
2017-04-01T00:50:38.149Z,0
2017-04-01T00:51:38.172Z,0
2017-04-01T00:52:38.244Z,0
2017-04-01T00:53:38.247Z,0
2017-04-01T00:54:38.098Z,0
2017-04-01T00:55:38.084Z,0
2017-04-01T00:56:38.070Z,0
2017-04-01T00:57:38.052Z,0
2017-04-01T00:58:37.740Z,0
2017-04-01T00:59:38.034Z,0
2017-04-01T01:00:37.713Z,0
2017-04-01T01:01:38.001Z,0
2017-04-01T01:02:38.002Z,0
2017-04-01T01:03:37.989Z,0
2017-04-01T01:04:37.651Z,0
2017-04-01T01:05:37.641Z,0
2017-04-01T01:06:37.629Z,0
2017-04-01T01:07:37.614Z,0
2017-04-01T01:08:37.653Z,0
2017-04-01T01:09:37.486Z,0
2017-04-01T01:10:38.058Z,0
2017-04-01T01:11:38.200Z,0
2017-04-01T01:12:38.221Z,0
2017-04-01T01:13:38.078Z,0
2017-04-01T01:14:37.723Z,0
2017-04-01T01:15:37.444Z,0
2017-04-01T01:16:37.685Z,0
2017-04-01T01:17:38.069Z,0
2017-04-01T01:18:37.597Z,0
2017-04-01T01:19:38.055Z,0
2017-04-01T01:20:38.295Z,0
2017-04-01T01:21:37.821Z,0
2017-04-01T01:22:37.479Z,0
2017-04-01T01:23:38.081Z,0
2017-04-01T01:24:37.886Z,0
2017-04-01T01:25:37.705Z,0
2017-04-01T01:26:37.682Z,0
2017-04-01T01:27:37.726Z,0
2017-04-01T01:28:37.661Z,0
2017-04-01T01:29:38.172Z,0
2017-04-01T01:30:37.629Z,0
2017-04-01T01:31:37.003Z,0
2017-04-01T01:32:37.335Z,0
2017-04-01T01:33:36.985Z,0
2017-04-01T01:34:37.265Z,0
2017-04-01T01:35:37.948Z,0
2017-04-01T01:36:37.831Z,0
2017-04-01T01:37:37.987Z,0
2017-04-01T01:38:38.130Z,0
2017-04-01T01:39:37.345Z,0
2017-04-01T01:40:37.395Z,0
2017-04-01T01:41:37.504Z,0
2017-04-01T01:42:37.798Z,0
2017-04-01T01:43:37.156Z,0
2017-04-01T01:44:37.459Z,0
2017-04-01T01:45:37.138Z,0
2017-04-01T01:46:37.121Z,0
2017-04-01T01:47:38.141Z,0
2017-04-01T01:48:37.403Z,0
2017-04-01T01:49:37.529Z,0
2017-04-01T01:50:37.303Z,0
2017-04-01T01:51:37.236Z,0
2017-04-01T01:52:37.495Z,0
2017-04-01T01:53:37.832Z,0
2017-04-01T01:54:37.491Z,0
2017-04-01T01:55:37.311Z,0
2017-04-01T01:56:37.305Z,0
2017-04-01T01:57:37.291Z,0
2017-04-01T01:58:37.277Z,0
2017-04-01T01:59:37.267Z,0
2017-04-01T02:00:37.254Z,0
2017-04-01T02:01:37.295Z,0
2017-04-01T02:02:36.915Z,0
2017-04-01T02:03:37.457Z,0
2017-04-01T02:04:37.437Z,0
2017-04-01T02:05:38.004Z,0
2017-04-01T02:06:37.146Z,0
2017-04-01T02:07:37.345Z,0
2017-04-01T02:08:37.536Z,0
2017-04-01T02:09:37.622Z,0
2017-04-01T02:10:37.119Z,0
2017-04-01T02:11:37.103Z,0
2017-04-01T02:12:36.773Z,0
2017-04-01T02:13:37.077Z,0
2017-04-01T02:14:37.132Z,0
2017-04-01T02:15:36.422Z,0
2017-04-01T02:16:37.700Z,0
2017-04-01T02:17:36.764Z,0
2017-04-01T02:18:37.448Z,0
2017-04-01T02:19:36.598Z,0
2017-04-01T02:20:36.950Z,0
2017-04-01T02:21:37.168Z,0
2017-04-01T02:22:37.053Z,0
2017-04-01T02:23:37.205Z,0
2017-04-01T02:24:37.072Z,0
2017-04-01T02:25:37.060Z,0
2017-04-01T02:26:37.493Z,0
2017-04-01T02:27:36.573Z,0
2017-04-01T02:28:37.021Z,0
2017-04-01T02:29:36.544Z,0
2017-04-01T02:30:37.080Z,0
2017-04-01T02:31:36.527Z,0
2017-04-01T02:32:36.832Z,0
2017-04-01T02:33:36.811Z,0
2017-04-01T02:34:36.804Z,0
2017-04-01T02:35:36.838Z,0
2017-04-01T02:36:37.079Z,0
2017-04-01T02:37:37.138Z,0
2017-04-01T02:38:36.851Z,0
2017-04-01T02:39:37.113Z,0
2017-04-01T02:40:36.098Z,0
2017-04-01T02:41:36.738Z,0
2017-04-01T02:42:36.894Z,0
2017-04-01T02:43:36.372Z,0
2017-04-01T02:44:36.679Z,0
2017-04-01T02:45:37.217Z,0
2017-04-01T02:46:36.647Z,0
2017-04-01T02:47:36.308Z,0
2017-04-01T02:48:36.610Z,0
2017-04-01T02:49:36.605Z,0
2017-04-01T02:50:37.023Z,0
2017-04-01T02:51:36.256Z,0
2017-04-01T02:52:36.274Z,0
2017-04-01T02:53:36.226Z,0
2017-04-01T02:54:37.084Z,0
2017-04-01T02:55:36.376Z,0
2017-04-01T02:56:36.502Z,0
2017-04-01T02:57:36.588Z,0
2017-04-01T02:58:36.165Z,0
2017-04-01T02:59:36.559Z,0
2017-04-01T03:00:36.446Z,0
2017-04-01T03:01:36.425Z,0
2017-04-01T03:02:36.299Z,0
2017-04-01T03:03:36.089Z,0
2017-04-01T03:04:36.382Z,0
2017-04-01T03:05:36.605Z,0
2017-04-01T03:06:37.001Z,0
2017-04-01T03:07:36.753Z,0
2017-04-01T03:08:36.738Z,0
2017-04-01T03:09:36.184Z,0
2017-04-01T03:10:36.398Z,0
2017-04-01T03:11:36.401Z,0
2017-04-01T03:12:36.054Z,0
2017-04-01T03:13:36.321Z,0
2017-04-01T03:14:36.055Z,0
2017-04-01T03:15:35.614Z,0
2017-04-01T03:16:36.271Z,0
2017-04-01T03:17:35.905Z,0
2017-04-01T03:18:35.995Z,0
2017-04-01T03:19:35.899Z,0
2017-04-01T03:20:36.593Z,0
2017-04-01T03:21:36.451Z,0
2017-04-01T03:22:36.381Z,0
2017-04-01T03:23:36.153Z,0
2017-04-01T03:24:36.694Z,0
2017-04-01T03:25:35.979Z,0
2017-04-01T03:26:35.773Z,0
2017-04-01T03:27:35.763Z,0
2017-04-01T03:28:36.070Z,0
2017-04-01T03:29:36.051Z,0
2017-04-01T03:30:36.032Z,0
2017-04-01T03:31:36.014Z,0
2017-04-01T03:32:36.005Z,0
2017-04-01T03:33:35.998Z,0
2017-04-01T03:34:35.353Z,0
2017-04-01T03:35:35.650Z,0
2017-04-01T03:36:35.963Z,0
2017-04-01T03:37:35.938Z,0
2017-04-01T03:38:35.611Z,0
2017-04-01T03:39:36.266Z,0
2017-04-01T03:40:36.330Z,0
2017-04-01T03:41:35.594Z,0
2017-04-01T03:42:34.936Z,0
2017-04-01T03:43:35.613Z,0
2017-04-01T03:44:35.528Z,0
2017-04-01T03:45:35.956Z,0
2017-04-01T03:46:35.504Z,0
2017-04-01T03:47:35.176Z,0
2017-04-01T03:48:35.786Z,0
2017-04-01T03:49:35.833Z,0
2017-04-01T03:50:35.788Z,0
2017-04-01T03:51:35.744Z,0
2017-04-01T03:52:36.093Z,0
2017-04-01T03:53:35.653Z,0
2017-04-01T03:54:36.292Z,0
2017-04-01T03:55:35.693Z,0
2017-04-01T03:56:35.369Z,0
2017-04-01T03:57:35.717Z,0
2017-04-01T03:58:35.647Z,0
2017-04-01T03:59:35.635Z,0
2017-04-01T04:00:35.626Z,0
2017-04-01T04:01:35.606Z,0
2017-04-01T04:02:35.627Z,0
2017-04-01T04:03:35.435Z,0
2017-04-01T04:04:35.299Z,0
2017-04-01T04:05:35.854Z,0
2017-04-01T04:06:35.644Z,0
2017-04-01T04:07:35.674Z,0
2017-04-01T04:08:36.143Z,0
2017-04-01T04:09:35.770Z,0
2017-04-01T04:10:35.414Z,0
2017-04-01T04:11:35.746Z,0
2017-04-01T04:12:35.353Z,0
2017-04-01T04:13:35.135Z,0
2017-04-01T04:14:35.167Z,0
2017-04-01T04:15:35.445Z,0
2017-04-01T04:16:35.429Z,0
2017-04-01T04:17:35.399Z,0
2017-04-01T04:18:35.134Z,0
2017-04-01T04:19:35.376Z,0
2017-04-01T04:20:34.733Z,0
2017-04-01T04:21:35.032Z,0
2017-04-01T04:22:36.091Z,0
2017-04-01T04:23:35.628Z,0
2017-04-01T04:24:36.378Z,0
2017-04-01T04:25:35.291Z,0
2017-04-01T04:26:35.411Z,0
2017-04-01T04:27:35.259Z,0
2017-04-01T04:28:35.235Z,0
2017-04-01T04:29:35.229Z,0
2017-04-01T04:30:35.211Z,0
2017-04-01T04:31:35.146Z,0
2017-04-01T04:32:35.169Z,0
2017-04-01T04:33:35.546Z,0
2017-04-01T04:34:35.143Z,0
2017-04-01T04:35:35.038Z,0
2017-04-01T04:36:35.114Z,0
2017-04-01T04:37:36.088Z,0
2017-04-01T04:38:35.707Z,4
2017-04-01T04:39:35.976Z,4
2017-04-01T04:40:35.061Z,0
2017-04-01T04:41:35.391Z,4
2017-04-01T04:42:34.938Z,4
2017-04-01T04:43:34.711Z,4
2017-04-01T04:44:34.698Z,8
2017-04-01T04:45:34.683Z,8
2017-04-01T04:46:34.669Z,12
2017-04-01T04:47:34.901Z,12
2017-04-01T04:48:34.956Z,16
2017-04-01T04:49:34.628Z,16
2017-04-01T04:50:34.928Z,20
2017-04-01T04:51:34.616Z,24
2017-04-01T04:52:35.001Z,24
2017-04-01T04:53:36.916Z,28
2017-04-01T04:54:35.268Z,32
2017-04-01T04:55:35.197Z,40
2017-04-01T04:56:34.977Z,44
2017-04-01T04:57:35.122Z,52
2017-04-01T04:58:35.269Z,60
2017-04-01T04:59:34.664Z,64
2017-04-01T05:00:34.601Z,76
2017-04-01T05:01:35.450Z,80
2017-04-01T05:02:35.000Z,92
2017-04-01T05:03:34.735Z,100
2017-04-01T05:04:34.411Z,112
2017-04-01T05:05:35.449Z,120
2017-04-01T05:06:35.495Z,132
2017-04-01T05:07:35.365Z,144
2017-04-01T05:08:35.350Z,156
2017-04-01T05:09:35.302Z,176
2017-04-01T05:10:35.244Z,196
2017-04-01T05:11:34.619Z,220
2017-04-01T05:12:34.607Z,248
2017-04-01T05:13:34.590Z,276
2017-04-01T05:14:34.573Z,308
2017-04-01T05:15:34.244Z,336
2017-04-01T05:16:34.234Z,368
2017-04-01T05:17:34.540Z,404
2017-04-01T05:18:34.519Z,432
2017-04-01T05:19:34.187Z,464
2017-04-01T05:20:34.489Z,488
2017-04-01T05:21:34.843Z,512
2017-04-01T05:22:35.384Z,536
2017-04-01T05:23:35.156Z,564
2017-04-01T05:24:34.811Z,592
2017-04-01T05:25:34.434Z,628
2017-04-01T05:26:34.098Z,660
2017-04-01T05:27:34.407Z,700
2017-04-01T05:28:34.391Z,728
2017-04-01T05:29:34.048Z,764
2017-04-01T05:30:34.354Z,792
2017-04-01T05:31:34.340Z,824
2017-04-01T05:32:34.322Z,872
2017-04-01T05:33:33.669Z,940
2017-04-01T05:34:34.306Z,1016
2017-04-01T05:35:34.335Z,1084
2017-04-01T05:36:34.501Z,1136
2017-04-01T05:37:34.773Z,1176
2017-04-01T05:38:34.784Z,1216
2017-04-01T05:39:34.152Z,1264
2017-04-01T05:40:34.206Z,1320
2017-04-01T05:41:34.188Z,1384
2017-04-01T05:42:34.170Z,1476
2017-04-01T05:43:34.163Z,1560
2017-04-01T05:44:33.830Z,1648
2017-04-01T05:45:33.814Z,1728
2017-04-01T05:46:34.125Z,1792
2017-04-01T05:47:34.111Z,1844
2017-04-01T05:48:34.665Z,1880
2017-04-01T05:49:33.136Z,1904
2017-04-01T05:50:34.673Z,1920
2017-04-01T05:51:34.957Z,1932
2017-04-01T05:52:34.745Z,1956
2017-04-01T05:53:34.366Z,1992
2017-04-01T05:54:34.874Z,2024
2017-04-01T05:55:33.996Z,2060
2017-04-01T05:56:34.277Z,2096
2017-04-01T05:57:33.981Z,2136
2017-04-01T05:58:33.662Z,2152
2017-04-01T05:59:33.946Z,2148
2017-04-01T06:00:33.948Z,2168
2017-04-01T06:01:33.919Z,2204
2017-04-01T06:02:33.913Z,2224
2017-04-01T06:03:34.320Z,2224
2017-04-01T06:04:34.280Z,2216
2017-04-01T06:05:33.734Z,2200
2017-04-01T06:06:34.188Z,2184
2017-04-01T06:07:34.308Z,2184
2017-04-01T06:08:34.358Z,2216
2017-04-01T06:09:34.382Z,2256
2017-04-01T06:10:33.772Z,2300
2017-04-01T06:11:33.584Z,2364
2017-04-01T06:12:33.747Z,2420
2017-04-01T06:13:33.858Z,2476
2017-04-01T06:14:33.720Z,2512
2017-04-01T06:15:33.783Z,2560
2017-04-01T06:16:33.886Z,2608
2017-04-01T06:17:33.675Z,2624
2017-04-01T06:18:33.667Z,2608
2017-04-01T06:19:33.656Z,2596
2017-04-01T06:20:33.358Z,2568
2017-04-01T06:21:33.834Z,2528
2017-04-01T06:22:34.043Z,2528
2017-04-01T06:23:33.924Z,2508
2017-04-01T06:24:33.284Z,2504
2017-04-01T06:25:33.577Z,2536
2017-04-01T06:26:33.571Z,2564
2017-04-01T06:27:33.550Z,2616
2017-04-01T06:28:33.531Z,2644
2017-04-01T06:29:33.547Z,2680
2017-04-01T06:30:32.886Z,2700
2017-04-01T06:31:33.500Z,2704
2017-04-01T06:32:33.178Z,2692
2017-04-01T06:33:33.467Z,2696
2017-04-01T06:34:33.149Z,2708
2017-04-01T06:35:33.438Z,2720
2017-04-01T06:36:33.425Z,2744
2017-04-01T06:37:33.686Z,2740
2017-04-01T06:38:33.354Z,2760
2017-04-01T06:39:33.538Z,2804
2017-04-01T06:40:32.754Z,2896
2017-04-01T06:41:33.360Z,3004
2017-04-01T06:42:33.556Z,3096
2017-04-01T06:43:33.347Z,3184
2017-04-01T06:44:33.016Z,3252
2017-04-01T06:45:33.307Z,3316
2017-04-01T06:46:32.992Z,3368
2017-04-01T06:47:33.009Z,3420
2017-04-01T06:48:32.956Z,3504
2017-04-01T06:49:32.629Z,3608
2017-04-01T06:50:32.941Z,3652
2017-04-01T06:51:33.229Z,3620
2017-04-01T06:52:33.322Z,3592
2017-04-01T06:53:32.902Z,3552
2017-04-01T06:54:33.251Z,3572
2017-04-01T06:55:33.178Z,3568
2017-04-01T06:56:33.196Z,3600
2017-04-01T06:57:32.846Z,3636
2017-04-01T06:58:33.146Z,3612
2017-04-01T06:59:33.133Z,3536
2017-04-01T07:00:33.121Z,3552
2017-04-01T07:01:33.110Z,3604
2017-04-01T07:02:33.095Z,3724
2017-04-01T07:03:32.810Z,3740
2017-04-01T07:04:33.131Z,3792
2017-04-01T07:05:33.054Z,3868
2017-04-01T07:06:32.741Z,3924
2017-04-01T07:07:33.037Z,4120
2017-04-01T07:08:33.431Z,4268
2017-04-01T07:09:33.453Z,4356
2017-04-01T07:10:32.692Z,4328
2017-04-01T07:11:33.013Z,4196
2017-04-01T07:12:32.973Z,4112
2017-04-01T07:13:32.959Z,4144
2017-04-01T07:14:32.634Z,4288
2017-04-01T07:15:32.626Z,4468
2017-04-01T07:16:32.615Z,4596
2017-04-01T07:17:32.280Z,4572
2017-04-01T07:18:32.904Z,4604
2017-04-01T07:19:32.888Z,4596
2017-04-01T07:20:33.195Z,4632
2017-04-01T07:21:33.263Z,4752
2017-04-01T07:22:32.828Z,4860
2017-04-01T07:23:33.029Z,4892
2017-04-01T07:24:32.794Z,4860
2017-04-01T07:25:32.815Z,4840
2017-04-01T07:26:32.506Z,4772
2017-04-01T07:27:32.789Z,4712
2017-04-01T07:28:33.121Z,5024
2017-04-01T07:29:32.439Z,5200
2017-04-01T07:30:32.761Z,5148
2017-04-01T07:31:32.757Z,5208
2017-04-01T07:32:32.726Z,5440
2017-04-01T07:33:32.703Z,5544
2017-04-01T07:34:32.691Z,5708
2017-04-01T07:35:32.683Z,5796
2017-04-01T07:36:32.667Z,5668
2017-04-01T07:37:32.659Z,5608
2017-04-01T07:38:32.679Z,5336
2017-04-01T07:39:33.033Z,5252
2017-04-01T07:40:32.619Z,5284
2017-04-01T07:41:32.615Z,5448
2017-04-01T07:42:32.606Z,5700
2017-04-01T07:43:32.583Z,6132
2017-04-01T07:44:31.957Z,6360
2017-04-01T07:45:32.559Z,6248
2017-04-01T07:46:32.243Z,6120
2017-04-01T07:47:31.919Z,6112
2017-04-01T07:48:32.531Z,5916
2017-04-01T07:49:32.563Z,5580
2017-04-01T07:50:32.516Z,5624
2017-04-01T07:51:32.545Z,5720
2017-04-01T07:52:32.270Z,5772
2017-04-01T07:53:32.576Z,6136
2017-04-01T07:54:32.266Z,6500
2017-04-01T07:55:32.137Z,6292
2017-04-01T07:56:31.820Z,6224
2017-04-01T07:57:31.800Z,6072
2017-04-01T07:58:32.421Z,6480
2017-04-01T07:59:31.789Z,6964
2017-04-01T08:00:32.664Z,7556
2017-04-01T08:01:32.420Z,8348
2017-04-01T08:02:32.376Z,8896
2017-04-01T08:03:32.603Z,9504
2017-04-01T08:04:32.487Z,9644
2017-04-01T08:05:32.111Z,9632
2017-04-01T08:06:32.495Z,9860
2017-04-01T08:07:32.530Z,10072
2017-04-01T08:08:32.266Z,9904
2017-04-01T08:09:32.751Z,9996
2017-04-01T08:10:32.283Z,10232
2017-04-01T08:11:31.963Z,10068
2017-04-01T08:12:32.263Z,9400
2017-04-01T08:13:31.947Z,9496
2017-04-01T08:14:32.246Z,9840
2017-04-01T08:15:31.919Z,9728
2017-04-01T08:16:32.224Z,10144
2017-04-01T08:17:31.889Z,10324
2017-04-01T08:18:32.202Z,10200
2017-04-01T08:19:31.875Z,9892
2017-04-01T08:20:32.568Z,11588
2017-04-01T08:21:32.403Z,24000
2017-04-01T08:22:32.426Z,24896
2017-04-01T08:23:31.980Z,26144
2017-04-01T08:24:32.396Z,29408
2017-04-01T08:25:32.356Z,27328
2017-04-01T08:26:32.172Z,19616
2017-04-01T08:27:32.234Z,18304
2017-04-01T08:28:32.256Z,24832
2017-04-01T08:29:31.813Z,26368
2017-04-01T08:30:32.113Z,25696
2017-04-01T08:31:31.778Z,13680
2017-04-01T08:32:32.084Z,19616
2017-04-01T08:33:32.086Z,19424
2017-04-01T08:34:32.071Z,17120
2017-04-01T08:35:32.087Z,16576
2017-04-01T08:36:32.058Z,18048
2017-04-01T08:37:32.048Z,15344
2017-04-01T08:38:32.590Z,12580
2017-04-01T08:39:32.381Z,11832
2017-04-01T08:40:32.040Z,12216
2017-04-01T08:41:32.194Z,12388
2017-04-01T08:42:32.255Z,12872
2017-04-01T08:43:31.709Z,13304
2017-04-01T08:44:31.379Z,14564
2017-04-01T08:45:31.989Z,15180
2017-04-01T08:46:32.187Z,22400
2017-04-01T08:47:31.949Z,20032
2017-04-01T08:48:31.663Z,15084
2017-04-01T08:49:31.911Z,14928
2017-04-01T08:50:32.489Z,14540
2017-04-01T08:51:32.237Z,13848
2017-04-01T08:52:31.735Z,14056
2017-04-01T08:53:32.133Z,14248
2017-04-01T08:54:32.127Z,14180
2017-04-01T08:55:31.711Z,15512
2017-04-01T08:56:31.927Z,17152
2017-04-01T08:57:31.926Z,16108
2017-04-01T08:58:31.598Z,15488
2017-04-01T08:59:31.282Z,16000
2017-04-01T09:00:32.249Z,15200
2017-04-01T09:01:31.892Z,13712
2017-04-01T09:02:31.983Z,14096
2017-04-01T09:03:31.918Z,16224
2017-04-01T09:04:31.869Z,12836
2017-04-01T09:05:31.870Z,13080
2017-04-01T09:06:31.627Z,13160
2017-04-01T09:07:32.183Z,13100
2017-04-01T09:08:32.003Z,13312
2017-04-01T09:09:32.173Z,14000
2017-04-01T09:10:32.067Z,15108
2017-04-01T09:11:31.827Z,14296
2017-04-01T09:12:31.836Z,17280
2017-04-01T09:13:31.499Z,18880
2017-04-01T09:14:31.838Z,20640
2017-04-01T09:15:31.817Z,20736
2017-04-01T09:16:31.797Z,16928
2017-04-01T09:17:31.160Z,15076
2017-04-01T09:18:31.782Z,14356
2017-04-01T09:19:31.277Z,12396
2017-04-01T09:20:32.174Z,11688
2017-04-01T09:21:32.069Z,11920
2017-04-01T09:22:31.833Z,12748
2017-04-01T09:23:31.790Z,15076
2017-04-01T09:24:32.001Z,14920
2017-04-01T09:25:31.912Z,14788
2017-04-01T09:26:31.727Z,14924
2017-04-01T09:27:31.409Z,14084
2017-04-01T09:28:31.721Z,11760
2017-04-01T09:29:31.707Z,10760
2017-04-01T09:30:31.698Z,11568
2017-04-01T09:31:31.471Z,12184
2017-04-01T09:32:31.692Z,12904
2017-04-01T09:33:31.677Z,12280
2017-04-01T09:34:30.750Z,13400
2017-04-01T09:35:31.678Z,15460
2017-04-01T09:36:31.967Z,22688
2017-04-01T09:37:31.962Z,19008
2017-04-01T09:38:31.717Z,13916
2017-04-01T09:39:31.482Z,14344
2017-04-01T09:40:31.828Z,14236
2017-04-01T09:41:30.999Z,14508
2017-04-01T09:42:31.850Z,18592
2017-04-01T09:43:31.714Z,18464
2017-04-01T09:44:31.325Z,17600
2017-04-01T09:45:31.498Z,15484
2017-04-01T09:46:31.308Z,14612
2017-04-01T09:47:30.968Z,16576
2017-04-01T09:48:31.681Z,18944
2017-04-01T09:49:31.333Z,23136
2017-04-01T09:50:31.762Z,28640
2017-04-01T09:51:31.606Z,27904
2017-04-01T09:52:31.556Z,30368
2017-04-01T09:53:31.735Z,30272
2017-04-01T09:54:31.893Z,22240
2017-04-01T09:55:31.715Z,20480
2017-04-01T09:56:31.579Z,18816
2017-04-01T09:57:31.539Z,16960
2017-04-01T09:58:31.680Z,18624
2017-04-01T09:59:31.204Z,16704
2017-04-01T10:00:31.357Z,18816
2017-04-01T10:01:31.515Z,19392
2017-04-01T10:02:31.196Z,21696
2017-04-01T10:03:31.491Z,27840
2017-04-01T10:04:31.498Z,28448
2017-04-01T10:05:31.501Z,31872
2017-04-01T10:06:31.506Z,36800
2017-04-01T10:07:31.549Z,33632
2017-04-01T10:08:31.663Z,33376
2017-04-01T10:09:31.670Z,32032
2017-04-01T10:10:31.629Z,36544
2017-04-01T10:11:31.468Z,30592
2017-04-01T10:12:31.474Z,27008
2017-04-01T10:13:31.140Z,27136
2017-04-01T10:14:31.127Z,23520
2017-04-01T10:15:31.124Z,24096
2017-04-01T10:16:31.119Z,22720
2017-04-01T10:17:31.428Z,16344
2017-04-01T10:18:31.426Z,26272
2017-04-01T10:19:31.431Z,17984
2017-04-01T10:20:31.422Z,18304
2017-04-01T10:21:31.618Z,18816
2017-04-01T10:22:31.409Z,18688
2017-04-01T10:23:31.422Z,14456
2017-04-01T10:24:31.399Z,13940
2017-04-01T10:25:31.405Z,16132
2017-04-01T10:26:31.086Z,19232
2017-04-01T10:27:31.387Z,23200
2017-04-01T10:28:31.375Z,19648
2017-04-01T10:29:31.310Z,25664
2017-04-01T10:30:31.365Z,24736
2017-04-01T10:31:31.366Z,22272
2017-04-01T10:32:31.354Z,30272
2017-04-01T10:33:31.359Z,35904
2017-04-01T10:34:31.574Z,36672
2017-04-01T10:35:31.620Z,21824
2017-04-01T10:36:30.885Z,20256
2017-04-01T10:37:30.821Z,20608
2017-04-01T10:38:31.432Z,23616
2017-04-01T10:39:31.482Z,34272
2017-04-01T10:40:31.522Z,26048
2017-04-01T10:41:31.317Z,32192
2017-04-01T10:42:31.584Z,33664
2017-04-01T10:43:31.306Z,28288
2017-04-01T10:44:30.993Z,18144
2017-04-01T10:45:30.987Z,17536
2017-04-01T10:46:31.308Z,19424
2017-04-01T10:47:31.124Z,23328
2017-04-01T10:48:31.592Z,24960
2017-04-01T10:49:30.855Z,31264
2017-04-01T10:50:31.648Z,21120
2017-04-01T10:51:31.093Z,20064
2017-04-01T10:52:31.267Z,19296
2017-04-01T10:53:30.968Z,17376
2017-04-01T10:54:31.266Z,17184
2017-04-01T10:55:31.245Z,21760
2017-04-01T10:56:31.013Z,25536
2017-04-01T10:57:30.623Z,24320
2017-04-01T10:58:30.968Z,23168
2017-04-01T10:59:31.271Z,22368
2017-04-01T11:00:31.244Z,22240
2017-04-01T11:01:31.233Z,22368
2017-04-01T11:02:31.232Z,23552
2017-04-01T11:03:31.236Z,23104
2017-04-01T11:04:31.213Z,20672
2017-04-01T11:05:31.202Z,23232
2017-04-01T11:06:30.902Z,28448
2017-04-01T11:07:31.506Z,30176
2017-04-01T11:08:30.967Z,28704
2017-04-01T11:09:30.955Z,29088
2017-04-01T11:10:31.056Z,31808
2017-04-01T11:11:30.895Z,30144
2017-04-01T11:12:31.292Z,40288
2017-04-01T11:13:30.934Z,42976
2017-04-01T11:14:30.543Z,45792
2017-04-01T11:15:31.160Z,48384
2017-04-01T11:16:30.843Z,56320
2017-04-01T11:17:31.146Z,54592
2017-04-01T11:18:30.839Z,51936
2017-04-01T11:19:31.158Z,46304
2017-04-01T11:20:30.837Z,39328
2017-04-01T11:21:31.136Z,43008
2017-04-01T11:22:30.656Z,45600
2017-04-01T11:23:30.503Z,44672
2017-04-01T11:24:31.173Z,41248
2017-04-01T11:25:31.324Z,40704
2017-04-01T11:26:31.122Z,38624
2017-04-01T11:27:30.881Z,43072
2017-04-01T11:28:30.952Z,44576
2017-04-01T11:29:31.105Z,44480
2017-04-01T11:30:31.104Z,42240
2017-04-01T11:31:31.104Z,41248
2017-04-01T11:32:31.108Z,39232
2017-04-01T11:33:30.785Z,39168
2017-04-01T11:34:30.794Z,41088
2017-04-01T11:35:31.581Z,42752
2017-04-01T11:36:31.084Z,46272
2017-04-01T11:37:31.093Z,52960
2017-04-01T11:38:31.405Z,47360
2017-04-01T11:39:31.417Z,39264
2017-04-01T11:40:31.473Z,30592
2017-04-01T11:41:31.081Z,26048
2017-04-01T11:42:30.452Z,24608
2017-04-01T11:43:31.076Z,22752
2017-04-01T11:44:31.069Z,22272
2017-04-01T11:45:31.067Z,20576
2017-04-01T11:46:31.060Z,20832
2017-04-01T11:47:31.097Z,19776
2017-04-01T11:48:31.048Z,17856
2017-04-01T11:49:31.051Z,17376
2017-04-01T11:50:31.042Z,17056
2017-04-01T11:51:30.741Z,17056
2017-04-01T11:52:31.034Z,16112
2017-04-01T11:53:30.731Z,14272
2017-04-01T11:54:31.033Z,13484
2017-04-01T11:55:31.169Z,15176
2017-04-01T11:56:31.022Z,24160
2017-04-01T11:57:30.727Z,24000
2017-04-01T11:58:30.394Z,21760
2017-04-01T11:59:31.022Z,19168
2017-04-01T12:00:31.004Z,18720
2017-04-01T12:01:31.004Z,17952
2017-04-01T12:02:30.679Z,16012
2017-04-01T12:03:31.063Z,15876
2017-04-01T12:04:30.672Z,15300
2017-04-01T12:05:30.993Z,15104
2017-04-01T12:06:30.975Z,15260
2017-04-01T12:07:30.660Z,18528
2017-04-01T12:08:30.962Z,19296
2017-04-01T12:09:30.960Z,26208
2017-04-01T12:10:31.307Z,20960
2017-04-01T12:11:30.946Z,26496
2017-04-01T12:12:30.629Z,21024
2017-04-01T12:13:30.634Z,36768
2017-04-01T12:14:30.617Z,23808
2017-04-01T12:15:30.964Z,26688
2017-04-01T12:16:30.926Z,35520
2017-04-01T12:17:30.916Z,27680
2017-04-01T12:18:30.603Z,26208
2017-04-01T12:19:30.593Z,25536
2017-04-01T12:20:30.586Z,31712
2017-04-01T12:21:30.888Z,56480
2017-04-01T12:22:30.886Z,71328
2017-04-01T12:23:30.887Z,70592
2017-04-01T12:24:31.250Z,64864
2017-04-01T12:25:30.909Z,61376
2017-04-01T12:26:30.891Z,55776
2017-04-01T12:27:30.550Z,63712
2017-04-01T12:28:30.548Z,77056
2017-04-01T12:29:30.867Z,36640
2017-04-01T12:30:30.544Z,76736
2017-04-01T12:31:30.861Z,71616
2017-04-01T12:32:30.530Z,35424
2017-04-01T12:33:30.855Z,60320
2017-04-01T12:34:30.529Z,25888
2017-04-01T12:35:30.530Z,59296
2017-04-01T12:36:30.835Z,25984
2017-04-01T12:37:30.309Z,24960
2017-04-01T12:38:31.038Z,19552
2017-04-01T12:39:30.689Z,20768
2017-04-01T12:40:31.105Z,64128
2017-04-01T12:41:30.499Z,46272
2017-04-01T12:42:30.508Z,62496
2017-04-01T12:43:30.703Z,36640
2017-04-01T12:44:30.493Z,20288
2017-04-01T12:45:30.854Z,19328
2017-04-01T12:46:30.810Z,21792
2017-04-01T12:47:30.483Z,35104
2017-04-01T12:48:30.798Z,25920
2017-04-01T12:49:30.480Z,20864
2017-04-01T12:50:30.486Z,19328
2017-04-01T12:51:30.500Z,18400
2017-04-01T12:52:30.787Z,17856
2017-04-01T12:53:30.478Z,19072
2017-04-01T12:54:31.109Z,23008
2017-04-01T12:55:31.297Z,23232
2017-04-01T12:56:30.753Z,21056
2017-04-01T12:57:30.789Z,21376
2017-04-01T12:58:30.746Z,19712
2017-04-01T12:59:30.744Z,15876
2017-04-01T13:00:30.745Z,18592
2017-04-01T13:01:30.742Z,19456
2017-04-01T13:02:30.735Z,19840
2017-04-01T13:03:30.411Z,19744
2017-04-01T13:04:30.715Z,20640
2017-04-01T13:05:30.095Z,21152
2017-04-01T13:06:30.717Z,22560
2017-04-01T13:07:30.704Z,24128
2017-04-01T13:08:30.392Z,26976
2017-04-01T13:09:30.400Z,31136
2017-04-01T13:10:31.049Z,33632
2017-04-01T13:11:30.377Z,36192
2017-04-01T13:12:30.690Z,36576
2017-04-01T13:13:30.049Z,35648
2017-04-01T13:14:30.678Z,35456
2017-04-01T13:15:30.042Z,34304
2017-04-01T13:16:30.770Z,34848
2017-04-01T13:17:30.666Z,32576
2017-04-01T13:18:30.797Z,30720
2017-04-01T13:19:30.723Z,30208
2017-04-01T13:20:30.785Z,30144
2017-04-01T13:21:31.030Z,28192
2017-04-01T13:22:30.753Z,27040
2017-04-01T13:23:30.546Z,25888
2017-04-01T13:24:30.486Z,24640
2017-04-01T13:25:30.774Z,22496
2017-04-01T13:26:30.311Z,18336
2017-04-01T13:27:30.609Z,16416
2017-04-01T13:28:29.677Z,15484
2017-04-01T13:29:30.600Z,21824
2017-04-01T13:30:30.290Z,17376
2017-04-01T13:31:30.593Z,16512
2017-04-01T13:32:30.588Z,17088
2017-04-01T13:33:30.584Z,20960
2017-04-01T13:34:30.264Z,26304
2017-04-01T13:35:29.947Z,27456
2017-04-01T13:36:30.370Z,28416
2017-04-01T13:37:30.787Z,27392
2017-04-01T13:38:30.115Z,27488